sensor_id;sensor_type;location;lat;lon;timestamp;temperature;humidity
20973;DHT22;10645;52.370;13.314;2022-09-28T00:01:50;8.00;99.90
20973;DHT22;10645;52.370;13.314;2022-09-28T00:04:17;8.00;99.90
20973;DHT22;10645;52.370;13.314;2022-09-28T00:06:43;8.00;99.90
20973;DHT22;10645;52.370;13.314;2022-09-28T00:09:09;8.00;99.90
20973;DHT22;10645;52.370;13.314;2022-09-28T00:11:35;8.00;99.90
20973;DHT22;10645;52.370;13.314;2022-09-28T00:14:02;8.10;99.90
20973;DHT22;10645;52.370;13.314;2022-09-28T00:16:34;8.10;99.90
20973;DHT22;10645;52.370;13.314;2022-09-28T00:19:01;8.00;99.90
20973;DHT22;10645;52.370;13.314;2022-09-28T00:21:30;8.10;99.90
20973;DHT22;10645;52.370;13.314;2022-09-28T00:23:58;8.10;99.90
20973;DHT22;10645;52.370;13.314;2022-09-28T00:27:00;8.10;99.90
20973;DHT22;10645;52.370;13.314;2022-09-28T00:29:30;8.10;99.90
20973;DHT22;10645;52.370;13.314;2022-09-28T00:32:03;8.10;99.90
20973;DHT22;10645;52.370;13.314;2022-09-28T00:34:35;8.10;99.90
20973;DHT22;10645;52.370;13.314;2022-09-28T00:37:03;8.10;99.90
20973;DHT22;10645;52.370;13.314;2022-09-28T00:39:30;8.10;99.90
20973;DHT22;10645;52.370;13.314;2022-09-28T00:41:57;8.10;99.90
20973;DHT22;10645;52.370;13.314;2022-09-28T00:44:30;8.20;99.90
20973;DHT22;10645;52.370;13.314;2022-09-28T00:47:16;8.20;99.90
20973;DHT22;10645;52.370;13.314;2022-09-28T00:52:34;8.20;99.90
20973;DHT22;10645;52.370;13.314;2022-09-28T00:55:04;8.20;99.90
20973;DHT22;10645;52.370;13.314;2022-09-28T00:57:33;8.20;99.90
20973;DHT22;10645;52.370;13.314;2022-09-28T01:00:02;8.20;99.90
20973;DHT22;10645;52.370;13.314;2022-09-28T01:02:30;8.20;99.90
20973;DHT22;10645;52.370;13.314;2022-09-28T01:04:57;8.20;99.90
20973;DHT22;10645;52.370;13.314;2022-09-28T01:07:24;8.20;99.90
20973;DHT22;10645;52.370;13.314;2022-09-28T01:09:50;8.20;99.90
20973;DHT22;10645;52.370;13.314;2022-09-28T01:12:19;8.20;99.90
20973;DHT22;10645;52.370;13.314;2022-09-28T01:14:45;8.20;99.90
20973;DHT22;10645;52.370;13.314;2022-09-28T01:17:14;8.20;99.90
20973;DHT22;10645;52.370;13.314;2022-09-28T01:23:03;8.20;99.90
20973;DHT22;10645;52.370;13.314;2022-09-28T01:25:52;8.20;99.90
20973;DHT22;10645;52.370;13.314;2022-09-28T01:28:27;8.20;99.90
20973;DHT22;10645;52.370;13.314;2022-09-28T01:31:04;8.20;99.90
20973;DHT22;10645;52.370;13.314;2022-09-28T01:33:47;8.20;99.90
20973;DHT22;10645;52.370;13.314;2022-09-28T01:36:21;8.20;99.90
20973;DHT22;10645;52.370;13.314;2022-09-28T01:38:59;8.20;99.90
20973;DHT22;10645;52.370;13.314;2022-09-28T01:41:28;8.20;99.90
20973;DHT22;10645;52.370;13.314;2022-09-28T01:43:55;8.20;99.90
20973;DHT22;10645;52.370;13.314;2022-09-28T01:46:26;8.20;99.90
20973;DHT22;10645;52.370;13.314;2022-09-28T01:48:56;8.20;99.90
20973;DHT22;10645;52.370;13.314;2022-09-28T01:51:34;8.20;99.90
20973;DHT22;10645;52.370;13.314;2022-09-28T01:54:11;8.20;99.90
20973;DHT22;10645;52.370;13.314;2022-09-28T01:56:51;8.20;99.90
20973;DHT22;10645;52.370;13.314;2022-09-28T01:59:24;8.20;99.90
20973;DHT22;10645;52.370;13.314;2022-09-28T02:02:06;8.30;99.90
20973;DHT22;10645;52.370;13.314;2022-09-28T02:04:53;8.30;99.90
20973;DHT22;10645;52.370;13.314;2022-09-28T02:10:09;8.20;99.90
20973;DHT22;10645;52.370;13.314;2022-09-28T02:12:45;8.30;99.90
20973;DHT22;10645;52.370;13.314;2022-09-28T02:15:19;8.30;99.90
20973;DHT22;10645;52.370;13.314;2022-09-28T02:17:47;8.20;99.90
20973;DHT22;10645;52.370;13.314;2022-09-28T02:20:15;8.20;99.90
20973;DHT22;10645;52.370;13.314;2022-09-28T02:22:48;8.20;99.90
20973;DHT22;10645;52.370;13.314;2022-09-28T02:25:22;8.20;99.90
20973;DHT22;10645;52.370;13.314;2022-09-28T02:27:58;8.20;99.90
20973;DHT22;10645;52.370;13.314;2022-09-28T02:30:26;8.20;99.90
20973;DHT22;10645;52.370;13.314;2022-09-28T02:32:57;8.20;99.90
20973;DHT22;10645;52.370;13.314;2022-09-28T02:35:25;8.20;99.90
20973;DHT22;10645;52.370;13.314;2022-09-28T02:37:52;8.10;99.90
20973;DHT22;10645;52.370;13.314;2022-09-28T02:40:25;8.10;99.90
20973;DHT22;10645;52.370;13.314;2022-09-28T02:43:17;8.00;99.90
20973;DHT22;10645;52.370;13.314;2022-09-28T02:51:33;8.00;99.90
20973;DHT22;10645;52.370;13.314;2022-09-28T03:00:07;7.90;99.90
20973;DHT22;10645;52.370;13.314;2022-09-28T03:02:47;7.90;99.90
20973;DHT22;10645;52.370;13.314;2022-09-28T03:05:46;7.90;99.90
20973;DHT22;10645;52.370;13.314;2022-09-28T03:11:00;7.80;99.90
20973;DHT22;10645;52.370;13.314;2022-09-28T03:13:27;7.70;99.90
20973;DHT22;10645;52.370;13.314;2022-09-28T03:16:11;7.70;99.90
20973;DHT22;10645;52.370;13.314;2022-09-28T03:18:39;7.60;99.90
20973;DHT22;10645;52.370;13.314;2022-09-28T03:21:05;7.50;99.90
20973;DHT22;10645;52.370;13.314;2022-09-28T03:23:32;7.50;99.90
20973;DHT22;10645;52.370;13.314;2022-09-28T03:26:00;7.40;99.90
20973;DHT22;10645;52.370;13.314;2022-09-28T03:28:27;7.30;99.90
20973;DHT22;10645;52.370;13.314;2022-09-28T03:30:53;7.20;99.90
20973;DHT22;10645;52.370;13.314;2022-09-28T03:33:19;7.00;99.90
20973;DHT22;10645;52.370;13.314;2022-09-28T03:35:49;6.90;99.90
20973;DHT22;10645;52.370;13.314;2022-09-28T03:38:17;6.80;99.90
20973;DHT22;10645;52.370;13.314;2022-09-28T03:40:51;6.70;99.90
20973;DHT22;10645;52.370;13.314;2022-09-28T03:43:17;6.60;99.90
20973;DHT22;10645;52.370;13.314;2022-09-28T03:45:49;6.50;99.90
20973;DHT22;10645;52.370;13.314;2022-09-28T03:48:15;6.40;99.90
20973;DHT22;10645;52.370;13.314;2022-09-28T03:50:41;6.40;99.90
20973;DHT22;10645;52.370;13.314;2022-09-28T03:53:09;6.50;99.90
20973;DHT22;10645;52.370;13.314;2022-09-28T03:55:35;6.60;99.90
20973;DHT22;10645;52.370;13.314;2022-09-28T03:58:01;6.60;99.90
20973;DHT22;10645;52.370;13.314;2022-09-28T04:00:28;6.50;99.90
20973;DHT22;10645;52.370;13.314;2022-09-28T04:02:54;6.60;99.90
20973;DHT22;10645;52.370;13.314;2022-09-28T04:05:20;6.60;99.90
20973;DHT22;10645;52.370;13.314;2022-09-28T04:07:47;6.60;99.90
20973;DHT22;10645;52.370;13.314;2022-09-28T04:10:13;6.60;99.90
20973;DHT22;10645;52.370;13.314;2022-09-28T04:12:39;6.60;99.90
20973;DHT22;10645;52.370;13.314;2022-09-28T04:15:05;6.60;99.90
20973;DHT22;10645;52.370;13.314;2022-09-28T04:17:31;6.70;99.90
20973;DHT22;10645;52.370;13.314;2022-09-28T04:19:59;6.70;99.90
20973;DHT22;10645;52.370;13.314;2022-09-28T04:22:36;6.80;99.90
20973;DHT22;10645;52.370;13.314;2022-09-28T04:25:03;6.90;99.90
20973;DHT22;10645;52.370;13.314;2022-09-28T04:27:29;7.00;99.90
20973;DHT22;10645;52.370;13.314;2022-09-28T04:30:14;7.00;99.90
20973;DHT22;10645;52.370;13.314;2022-09-28T04:32:45;7.00;99.90
20973;DHT22;10645;52.370;13.314;2022-09-28T04:35:13;7.00;99.90
20973;DHT22;10645;52.370;13.314;2022-09-28T04:37:39;7.00;99.90
20973;DHT22;10645;52.370;13.314;2022-09-28T04:40:06;7.00;99.90
20973;DHT22;10645;52.370;13.314;2022-09-28T04:42:33;7.00;99.90
20973;DHT22;10645;52.370;13.314;2022-09-28T04:44:59;7.10;99.90
20973;DHT22;10645;52.370;13.314;2022-09-28T04:47:26;7.10;99.90
20973;DHT22;10645;52.370;13.314;2022-09-28T04:50:27;7.20;99.90
20973;DHT22;10645;52.370;13.314;2022-09-28T04:53:05;7.20;99.90
20973;DHT22;10645;52.370;13.314;2022-09-28T04:55:31;7.30;99.90
20973;DHT22;10645;52.370;13.314;2022-09-28T04:57:58;7.30;99.90
20973;DHT22;10645;52.370;13.314;2022-09-28T05:00:28;7.40;99.90
20973;DHT22;10645;52.370;13.314;2022-09-28T05:03:06;7.40;99.90
20973;DHT22;10645;52.370;13.314;2022-09-28T05:05:58;7.40;99.90
20973;DHT22;10645;52.370;13.314;2022-09-28T05:08:35;7.40;99.90
20973;DHT22;10645;52.370;13.314;2022-09-28T05:11:04;7.50;99.90
20973;DHT22;10645;52.370;13.314;2022-09-28T05:13:33;7.50;99.90
20973;DHT22;10645;52.370;13.314;2022-09-28T05:16:05;7.60;99.90
20973;DHT22;10645;52.370;13.314;2022-09-28T05:18:34;7.50;99.90
20973;DHT22;10645;52.370;13.314;2022-09-28T05:21:02;7.60;99.90
20973;DHT22;10645;52.370;13.314;2022-09-28T05:23:29;7.60;99.90
20973;DHT22;10645;52.370;13.314;2022-09-28T05:26:00;7.60;99.90
20973;DHT22;10645;52.370;13.314;2022-09-28T05:28:29;7.70;99.90
20973;DHT22;10645;52.370;13.314;2022-09-28T05:31:15;7.60;99.90
20973;DHT22;10645;52.370;13.314;2022-09-28T05:33:57;7.70;99.90
20973;DHT22;10645;52.370;13.314;2022-09-28T05:36:23;7.70;99.90
20973;DHT22;10645;52.370;13.314;2022-09-28T05:38:52;7.70;99.90
20973;DHT22;10645;52.370;13.314;2022-09-28T05:41:18;7.70;99.90
20973;DHT22;10645;52.370;13.314;2022-09-28T05:43:44;7.70;99.90
20973;DHT22;10645;52.370;13.314;2022-09-28T05:46:10;7.70;99.90
20973;DHT22;10645;52.370;13.314;2022-09-28T05:48:39;7.70;99.90
20973;DHT22;10645;52.370;13.314;2022-09-28T05:51:06;7.70;99.90
20973;DHT22;10645;52.370;13.314;2022-09-28T05:53:32;7.70;99.90
20973;DHT22;10645;52.370;13.314;2022-09-28T05:55:58;7.70;99.90
20973;DHT22;10645;52.370;13.314;2022-09-28T05:58:25;7.70;99.90
20973;DHT22;10645;52.370;13.314;2022-09-28T06:00:54;7.70;99.90
20973;DHT22;10645;52.370;13.314;2022-09-28T06:03:20;7.60;99.90
20973;DHT22;10645;52.370;13.314;2022-09-28T06:05:47;7.60;99.90
20973;DHT22;10645;52.370;13.314;2022-09-28T06:08:13;7.50;99.90
20973;DHT22;10645;52.370;13.314;2022-09-28T06:10:43;7.40;99.90
20973;DHT22;10645;52.370;13.314;2022-09-28T06:13:09;7.40;99.90
20973;DHT22;10645;52.370;13.314;2022-09-28T06:15:37;7.50;99.90
20973;DHT22;10645;52.370;13.314;2022-09-28T06:18:09;7.60;99.90
20973;DHT22;10645;52.370;13.314;2022-09-28T06:20:54;7.60;99.90
20973;DHT22;10645;52.370;13.314;2022-09-28T06:23:30;7.60;99.90
20973;DHT22;10645;52.370;13.314;2022-09-28T06:25:58;7.60;99.90
20973;DHT22;10645;52.370;13.314;2022-09-28T06:28:24;7.60;99.90
20973;DHT22;10645;52.370;13.314;2022-09-28T06:30:51;7.60;99.90
20973;DHT22;10645;52.370;13.314;2022-09-28T06:33:18;7.70;99.90
20973;DHT22;10645;52.370;13.314;2022-09-28T06:35:44;7.70;99.90
20973;DHT22;10645;52.370;13.314;2022-09-28T06:38:11;7.80;99.90
20973;DHT22;10645;52.370;13.314;2022-09-28T06:40:37;7.90;99.90
20973;DHT22;10645;52.370;13.314;2022-09-28T06:43:05;7.90;99.90
20973;DHT22;10645;52.370;13.314;2022-09-28T06:45:53;8.10;99.90
20973;DHT22;10645;52.370;13.314;2022-09-28T06:48:24;8.10;99.90
20973;DHT22;10645;52.370;13.314;2022-09-28T06:50:50;8.30;99.90
20973;DHT22;10645;52.370;13.314;2022-09-28T06:53:45;8.40;99.90
20973;DHT22;10645;52.370;13.314;2022-09-28T06:56:37;8.50;99.90
20973;DHT22;10645;52.370;13.314;2022-09-28T06:59:03;8.60;99.90
20973;DHT22;10645;52.370;13.314;2022-09-28T07:01:29;8.70;99.90
20973;DHT22;10645;52.370;13.314;2022-09-28T07:04:15;8.80;99.90
20973;DHT22;10645;52.370;13.314;2022-09-28T07:07:14;8.80;99.90
20973;DHT22;10645;52.370;13.314;2022-09-28T07:09:59;8.90;99.90
20973;DHT22;10645;52.370;13.314;2022-09-28T07:12:50;9.10;99.90
20973;DHT22;10645;52.370;13.314;2022-09-28T07:15:23;9.10;99.90
20973;DHT22;10645;52.370;13.314;2022-09-28T07:17:55;9.20;99.90
20973;DHT22;10645;52.370;13.314;2022-09-28T07:20:22;9.30;99.90
20973;DHT22;10645;52.370;13.314;2022-09-28T07:22:55;9.30;99.90
20973;DHT22;10645;52.370;13.314;2022-09-28T07:25:22;9.50;99.90
20973;DHT22;10645;52.370;13.314;2022-09-28T07:28:18;9.60;99.90
20973;DHT22;10645;52.370;13.314;2022-09-28T07:31:04;9.70;99.90
20973;DHT22;10645;52.370;13.314;2022-09-28T07:33:50;9.80;99.90
20973;DHT22;10645;52.370;13.314;2022-09-28T07:36:24;9.90;99.90
20973;DHT22;10645;52.370;13.314;2022-09-28T07:38:51;9.90;99.90
20973;DHT22;10645;52.370;13.314;2022-09-28T07:41:17;10.00;99.90
20973;DHT22;10645;52.370;13.314;2022-09-28T07:43:58;10.10;99.90
20973;DHT22;10645;52.370;13.314;2022-09-28T07:46:31;10.10;99.90
20973;DHT22;10645;52.370;13.314;2022-09-28T07:49:03;10.20;99.90
20973;DHT22;10645;52.370;13.314;2022-09-28T07:51:48;10.30;99.90
20973;DHT22;10645;52.370;13.314;2022-09-28T07:54:17;10.40;99.90
20973;DHT22;10645;52.370;13.314;2022-09-28T07:57:06;10.50;99.90
20973;DHT22;10645;52.370;13.314;2022-09-28T07:59:39;10.60;99.90
20973;DHT22;10645;52.370;13.314;2022-09-28T08:02:40;10.70;99.90
20973;DHT22;10645;52.370;13.314;2022-09-28T08:05:06;10.90;99.90
20973;DHT22;10645;52.370;13.314;2022-09-28T08:07:35;11.00;99.90
20973;DHT22;10645;52.370;13.314;2022-09-28T08:10:05;11.20;99.90
20973;DHT22;10645;52.370;13.314;2022-09-28T08:12:54;11.20;99.90
20973;DHT22;10645;52.370;13.314;2022-09-28T08:15:41;11.30;99.90
20973;DHT22;10645;52.370;13.314;2022-09-28T08:18:30;11.50;99.90
20973;DHT22;10645;52.370;13.314;2022-09-28T08:20:56;11.70;99.90
20973;DHT22;10645;52.370;13.314;2022-09-28T08:23:41;11.90;99.90
20973;DHT22;10645;52.370;13.314;2022-09-28T08:26:08;12.00;99.90
20973;DHT22;10645;52.370;13.314;2022-09-28T08:28:34;11.90;99.90
20973;DHT22;10645;52.370;13.314;2022-09-28T08:31:05;11.90;99.90
20973;DHT22;10645;52.370;13.314;2022-09-28T08:33:50;12.00;99.90
20973;DHT22;10645;52.370;13.314;2022-09-28T08:36:50;12.10;99.90
20973;DHT22;10645;52.370;13.314;2022-09-28T08:39:54;12.30;99.90
20973;DHT22;10645;52.370;13.314;2022-09-28T08:42:42;12.30;99.90
20973;DHT22;10645;52.370;13.314;2022-09-28T08:45:17;12.20;99.90
20973;DHT22;10645;52.370;13.314;2022-09-28T08:48:20;12.30;99.90
20973;DHT22;10645;52.370;13.314;2022-09-28T08:51:31;12.50;99.90
20973;DHT22;10645;52.370;13.314;2022-09-28T08:54:31;12.60;99.90
20973;DHT22;10645;52.370;13.314;2022-09-28T08:57:05;12.60;99.90
20973;DHT22;10645;52.370;13.314;2022-09-28T08:59:45;12.70;99.90
20973;DHT22;10645;52.370;13.314;2022-09-28T09:02:24;12.70;99.90
20973;DHT22;10645;52.370;13.314;2022-09-28T09:04:54;13.00;99.90
20973;DHT22;10645;52.370;13.314;2022-09-28T09:18:42;13.20;99.90
20973;DHT22;10645;52.370;13.314;2022-09-28T09:21:42;13.10;99.90
20973;DHT22;10645;52.370;13.314;2022-09-28T09:24:15;12.70;99.90
20973;DHT22;10645;52.370;13.314;2022-09-28T09:26:44;12.60;99.90
20973;DHT22;10645;52.370;13.314;2022-09-28T09:35:24;12.40;99.90
20973;DHT22;10645;52.370;13.314;2022-09-28T09:44:57;12.60;99.90
20973;DHT22;10645;52.370;13.314;2022-09-28T09:47:54;12.80;99.90
20973;DHT22;10645;52.370;13.314;2022-09-28T09:53:35;13.10;99.90
20973;DHT22;10645;52.370;13.314;2022-09-28T09:56:13;13.00;99.90
20973;DHT22;10645;52.370;13.314;2022-09-28T09:59:11;12.90;99.90
20973;DHT22;10645;52.370;13.314;2022-09-28T10:02:01;12.80;99.90
20973;DHT22;10645;52.370;13.314;2022-09-28T10:04:43;12.50;99.90
20973;DHT22;10645;52.370;13.314;2022-09-28T10:07:48;12.40;99.90
20973;DHT22;10645;52.370;13.314;2022-09-28T10:10:27;12.30;99.90
20973;DHT22;10645;52.370;13.314;2022-09-28T10:13:04;12.20;99.90
20973;DHT22;10645;52.370;13.314;2022-09-28T10:15:31;12.10;99.90
20973;DHT22;10645;52.370;13.314;2022-09-28T10:18:13;12.00;99.90
20973;DHT22;10645;52.370;13.314;2022-09-28T10:20:59;11.90;99.90
20973;DHT22;10645;52.370;13.314;2022-09-28T10:23:43;11.90;99.90
20973;DHT22;10645;52.370;13.314;2022-09-28T10:26:14;11.90;99.90
20973;DHT22;10645;52.370;13.314;2022-09-28T10:29:00;11.90;99.90
20973;DHT22;10645;52.370;13.314;2022-09-28T10:34:12;11.80;99.90
20973;DHT22;10645;52.370;13.314;2022-09-28T10:37:00;11.80;99.90
20973;DHT22;10645;52.370;13.314;2022-09-28T10:39:53;11.80;99.90
20973;DHT22;10645;52.370;13.314;2022-09-28T10:42:29;11.80;99.90
20973;DHT22;10645;52.370;13.314;2022-09-28T10:45:19;11.70;99.90
20973;DHT22;10645;52.370;13.314;2022-09-28T10:47:45;11.60;99.90
20973;DHT22;10645;52.370;13.314;2022-09-28T10:50:22;11.70;99.90
20973;DHT22;10645;52.370;13.314;2022-09-28T10:53:10;11.80;99.90
20973;DHT22;10645;52.370;13.314;2022-09-28T10:56:06;11.80;99.90
20973;DHT22;10645;52.370;13.314;2022-09-28T10:58:42;11.70;99.90
20973;DHT22;10645;52.370;13.314;2022-09-28T11:01:17;11.70;99.90
20973;DHT22;10645;52.370;13.314;2022-09-28T11:03:54;11.70;99.90
20973;DHT22;10645;52.370;13.314;2022-09-28T11:06:30;11.60;99.90
20973;DHT22;10645;52.370;13.314;2022-09-28T11:09:04;11.60;99.90
20973;DHT22;10645;52.370;13.314;2022-09-28T11:11:40;11.60;99.90
20973;DHT22;10645;52.370;13.314;2022-09-28T11:14:30;11.60;99.90
20973;DHT22;10645;52.370;13.314;2022-09-28T11:17:20;11.60;99.90
20973;DHT22;10645;52.370;13.314;2022-09-28T11:19:49;11.60;99.90
20973;DHT22;10645;52.370;13.314;2022-09-28T11:22:37;11.50;99.90
20973;DHT22;10645;52.370;13.314;2022-09-28T11:30:27;11.40;99.90
20973;DHT22;10645;52.370;13.314;2022-09-28T11:33:30;11.50;99.90
20973;DHT22;10645;52.370;13.314;2022-09-28T11:36:36;11.60;99.90
20973;DHT22;10645;52.370;13.314;2022-09-28T11:39:25;11.20;99.90
20973;DHT22;10645;52.370;13.314;2022-09-28T11:42:19;11.10;99.90
20973;DHT22;10645;52.370;13.314;2022-09-28T11:44:57;11.30;99.90
20973;DHT22;10645;52.370;13.314;2022-09-28T11:47:35;11.50;99.90
20973;DHT22;10645;52.370;13.314;2022-09-28T11:53:07;11.30;99.90
20973;DHT22;10645;52.370;13.314;2022-09-28T11:58:26;11.30;99.90
20973;DHT22;10645;52.370;13.314;2022-09-28T12:01:20;11.40;99.90
20973;DHT22;10645;52.370;13.314;2022-09-28T12:04:25;11.20;99.90
20973;DHT22;10645;52.370;13.314;2022-09-28T12:07:16;11.10;99.90
20973;DHT22;10645;52.370;13.314;2022-09-28T12:09:57;11.10;99.90
20973;DHT22;10645;52.370;13.314;2022-09-28T12:13:17;11.20;99.90
20973;DHT22;10645;52.370;13.314;2022-09-28T12:15:31;11.20;99.90
20973;DHT22;10645;52.370;13.314;2022-09-28T12:18:02;11.10;99.90
20973;DHT22;10645;52.370;13.314;2022-09-28T12:20:46;11.10;99.90
20973;DHT22;10645;52.370;13.314;2022-09-28T12:23:17;11.20;99.90
20973;DHT22;10645;52.370;13.314;2022-09-28T12:25:54;11.30;99.90
20973;DHT22;10645;52.370;13.314;2022-09-28T12:28:46;11.20;99.90
20973;DHT22;10645;52.370;13.314;2022-09-28T12:31:25;11.40;99.90
20973;DHT22;10645;52.370;13.314;2022-09-28T12:33:53;11.40;99.90
20973;DHT22;10645;52.370;13.314;2022-09-28T12:36:53;11.30;99.90
20973;DHT22;10645;52.370;13.314;2022-09-28T12:56:38;11.30;99.90
20973;DHT22;10645;52.370;13.314;2022-09-28T12:59:23;11.30;99.90
20973;DHT22;10645;52.370;13.314;2022-09-28T13:04:51;11.30;99.90
20973;DHT22;10645;52.370;13.314;2022-09-28T13:07:56;11.30;99.90
20973;DHT22;10645;52.370;13.314;2022-09-28T13:16:44;11.30;99.90
20973;DHT22;10645;52.370;13.314;2022-09-28T13:19:26;11.40;99.90
20973;DHT22;10645;52.370;13.314;2022-09-28T13:25:00;11.60;99.90
20973;DHT22;10645;52.370;13.314;2022-09-28T13:27:54;11.70;99.90
20973;DHT22;10645;52.370;13.314;2022-09-28T13:30:21;11.80;99.90
20973;DHT22;10645;52.370;13.314;2022-09-28T13:32:48;11.80;99.90
20973;DHT22;10645;52.370;13.314;2022-09-28T13:35:18;11.70;99.90
20973;DHT22;10645;52.370;13.314;2022-09-28T13:37:45;11.70;99.90
20973;DHT22;10645;52.370;13.314;2022-09-28T13:40:11;11.70;99.90
20973;DHT22;10645;52.370;13.314;2022-09-28T13:50:45;11.60;99.90
20973;DHT22;10645;52.370;13.314;2022-09-28T13:59:16;11.50;99.90
20973;DHT22;10645;52.370;13.314;2022-09-28T14:01:57;11.50;99.90
20973;DHT22;10645;52.370;13.314;2022-09-28T14:07:56;11.40;99.90
20973;DHT22;10645;52.370;13.314;2022-09-28T14:10:52;11.40;99.90
20973;DHT22;10645;52.370;13.314;2022-09-28T14:16:24;11.30;99.90
20973;DHT22;10645;52.370;13.314;2022-09-28T14:18:59;11.30;99.90
20973;DHT22;10645;52.370;13.314;2022-09-28T14:29:34;11.10;99.90
20973;DHT22;10645;52.370;13.314;2022-09-28T14:32:21;11.10;99.90
20973;DHT22;10645;52.370;13.314;2022-09-28T14:34:55;11.20;99.90
20973;DHT22;10645;52.370;13.314;2022-09-28T14:37:34;11.30;99.90
20973;DHT22;10645;52.370;13.314;2022-09-28T14:40:23;11.20;99.90
20973;DHT22;10645;52.370;13.314;2022-09-28T14:48:51;11.30;99.90
20973;DHT22;10645;52.370;13.314;2022-09-28T14:53:53;11.40;99.90
20973;DHT22;10645;52.370;13.314;2022-09-28T14:56:21;11.40;99.90
20973;DHT22;10645;52.370;13.314;2022-09-28T14:58:52;11.40;99.90
20973;DHT22;10645;52.370;13.314;2022-09-28T15:01:20;11.50;99.90
20973;DHT22;10645;52.370;13.314;2022-09-28T15:03:51;11.40;99.90
20973;DHT22;10645;52.370;13.314;2022-09-28T15:06:21;11.50;99.90
20973;DHT22;10645;52.370;13.314;2022-09-28T15:08:47;11.60;99.90
20973;DHT22;10645;52.370;13.314;2022-09-28T15:11:17;11.70;99.90
20973;DHT22;10645;52.370;13.314;2022-09-28T15:13:44;11.70;99.90
20973;DHT22;10645;52.370;13.314;2022-09-28T15:16:15;11.80;99.90
20973;DHT22;10645;52.370;13.314;2022-09-28T15:19:06;11.60;99.90
20973;DHT22;10645;52.370;13.314;2022-09-28T15:21:37;11.70;99.90
20973;DHT22;10645;52.370;13.314;2022-09-28T15:24:27;11.60;99.90
20973;DHT22;10645;52.370;13.314;2022-09-28T15:26:57;11.60;99.90
20973;DHT22;10645;52.370;13.314;2022-09-28T15:29:23;11.50;99.90
20973;DHT22;10645;52.370;13.314;2022-09-28T15:31:52;11.50;99.90
20973;DHT22;10645;52.370;13.314;2022-09-28T15:34:32;11.50;99.90
20973;DHT22;10645;52.370;13.314;2022-09-28T15:39:49;11.60;99.90
20973;DHT22;10645;52.370;13.314;2022-09-28T15:42:16;11.50;99.90
20973;DHT22;10645;52.370;13.314;2022-09-28T15:47:28;11.60;99.90
20973;DHT22;10645;52.370;13.314;2022-09-28T15:49:57;11.50;99.90
20973;DHT22;10645;52.370;13.314;2022-09-28T15:52:27;11.50;99.90
20973;DHT22;10645;52.370;13.314;2022-09-28T15:54:56;11.40;99.90
20973;DHT22;10645;52.370;13.314;2022-09-28T15:57:36;11.30;99.90
20973;DHT22;10645;52.370;13.314;2022-09-28T16:00:15;11.30;99.90
20973;DHT22;10645;52.370;13.314;2022-09-28T16:03:20;11.30;99.90
20973;DHT22;10645;52.370;13.314;2022-09-28T16:06:08;11.40;99.90
20973;DHT22;10645;52.370;13.314;2022-09-28T16:11:20;11.30;99.90
20973;DHT22;10645;52.370;13.314;2022-09-28T16:13:56;11.10;99.90
20973;DHT22;10645;52.370;13.314;2022-09-28T16:19:27;10.80;99.90
20973;DHT22;10645;52.370;13.314;2022-09-28T16:21:56;10.80;99.90
20973;DHT22;10645;52.370;13.314;2022-09-28T16:24:26;10.60;99.90
20973;DHT22;10645;52.370;13.314;2022-09-28T16:29:34;10.40;99.90
20973;DHT22;10645;52.370;13.314;2022-09-28T16:37:39;10.10;99.90
20973;DHT22;10645;52.370;13.314;2022-09-28T16:40:09;10.10;99.90
20973;DHT22;10645;52.370;13.314;2022-09-28T16:42:36;10.00;99.90
20973;DHT22;10645;52.370;13.314;2022-09-28T16:45:03;9.90;99.90
20973;DHT22;10645;52.370;13.314;2022-09-28T16:47:31;9.90;99.90
20973;DHT22;10645;52.370;13.314;2022-09-28T16:50:05;9.80;99.90
20973;DHT22;10645;52.370;13.314;2022-09-28T16:52:32;9.80;99.90
20973;DHT22;10645;52.370;13.314;2022-09-28T16:55:17;9.70;99.90
20973;DHT22;10645;52.370;13.314;2022-09-28T16:57:44;9.70;99.90
20973;DHT22;10645;52.370;13.314;2022-09-28T17:02:46;9.60;99.90
20973;DHT22;10645;52.370;13.314;2022-09-28T17:05:13;9.60;99.90
20973;DHT22;10645;52.370;13.314;2022-09-28T17:07:42;9.60;99.90
20973;DHT22;10645;52.370;13.314;2022-09-28T17:13:12;9.50;99.90
20973;DHT22;10645;52.370;13.314;2022-09-28T17:15:40;9.50;99.90
20973;DHT22;10645;52.370;13.314;2022-09-28T17:18:06;9.50;99.90
20973;DHT22;10645;52.370;13.314;2022-09-28T17:20:35;9.40;99.90
20973;DHT22;10645;52.370;13.314;2022-09-28T17:23:02;9.40;99.90
20973;DHT22;10645;52.370;13.314;2022-09-28T17:25:28;9.40;99.90
20973;DHT22;10645;52.370;13.314;2022-09-28T17:27:56;9.40;99.90
20973;DHT22;10645;52.370;13.314;2022-09-28T17:30:23;9.30;99.90
20973;DHT22;10645;52.370;13.314;2022-09-28T17:32:49;9.30;99.90
20973;DHT22;10645;52.370;13.314;2022-09-28T17:35:17;9.30;99.90
20973;DHT22;10645;52.370;13.314;2022-09-28T17:37:44;9.30;99.90
20973;DHT22;10645;52.370;13.314;2022-09-28T17:40:19;9.30;99.90
20973;DHT22;10645;52.370;13.314;2022-09-28T17:42:46;9.30;99.90
20973;DHT22;10645;52.370;13.314;2022-09-28T17:45:14;9.30;99.90
20973;DHT22;10645;52.370;13.314;2022-09-28T17:47:42;9.30;99.90
20973;DHT22;10645;52.370;13.314;2022-09-28T17:50:34;9.30;99.90
20973;DHT22;10645;52.370;13.314;2022-09-28T17:53:00;9.20;99.90
20973;DHT22;10645;52.370;13.314;2022-09-28T17:55:32;9.20;99.90
20973;DHT22;10645;52.370;13.314;2022-09-28T17:58:00;9.20;99.90
20973;DHT22;10645;52.370;13.314;2022-09-28T18:00:27;9.20;99.90
20973;DHT22;10645;52.370;13.314;2022-09-28T18:02:54;9.20;99.90
20973;DHT22;10645;52.370;13.314;2022-09-28T18:05:21;9.20;99.90
20973;DHT22;10645;52.370;13.314;2022-09-28T18:07:48;9.20;99.90
20973;DHT22;10645;52.370;13.314;2022-09-28T18:10:17;9.20;99.90
20973;DHT22;10645;52.370;13.314;2022-09-28T18:12:44;9.20;99.90
20973;DHT22;10645;52.370;13.314;2022-09-28T18:15:11;9.20;99.90
20973;DHT22;10645;52.370;13.314;2022-09-28T18:17:38;9.30;99.90
20973;DHT22;10645;52.370;13.314;2022-09-28T18:20:05;9.30;99.90
20973;DHT22;10645;52.370;13.314;2022-09-28T18:22:32;9.30;99.90
20973;DHT22;10645;52.370;13.314;2022-09-28T18:24:58;9.30;99.90
20973;DHT22;10645;52.370;13.314;2022-09-28T18:27:27;9.40;99.90
20973;DHT22;10645;52.370;13.314;2022-09-28T18:29:53;9.30;99.90
20973;DHT22;10645;52.370;13.314;2022-09-28T18:32:20;9.40;99.90
20973;DHT22;10645;52.370;13.314;2022-09-28T18:34:46;9.30;99.90
20973;DHT22;10645;52.370;13.314;2022-09-28T18:37:12;9.30;99.90
20973;DHT22;10645;52.370;13.314;2022-09-28T18:39:38;9.30;99.90
20973;DHT22;10645;52.370;13.314;2022-09-28T18:42:04;9.30;99.90
20973;DHT22;10645;52.370;13.314;2022-09-28T18:44:31;9.40;99.90
20973;DHT22;10645;52.370;13.314;2022-09-28T18:46:57;9.40;99.90